Alto Feliz, Brazil
Current Conditions -  °F | °C
As of 6:45 PM on Sunday 21 Dec 2014 (Local Time) from SBCO Reporting Station
Light Rain Light Rain  
Wind Chill: 72°   Ceiling: 400
Heat Index: 72°   Visibility: 0.93mi
Dew Point: 72°   Wind: 8mph
Humidity: 100%   Direction: 270°W
Pressure: 29.53"   Gusts: NA
Location:  29.39°S, 51.31°W
Report Text: SBCO 212045Z 27007KT 1500 R12/1700 R30/1700 -RADZ BR BKN004 BKN009OVC100 22/22 Q1000
Loading
Personal Weather Stations






























Interactive Weather Map New forecast layout! Learn more

10-Day Weather Forecast

Advertisements
Track Severe Weather on mobile